createdAt,value
2019-06-07T16:42:48.927Z,6.25
2019-06-07T16:43:52.463Z,6.00
2019-06-07T16:44:55.804Z,7.00
2019-06-07T16:46:00.577Z,6.50
2019-06-07T16:47:07.366Z,7.25
2019-06-07T16:48:11.462Z,8.00
2019-06-07T16:49:14.749Z,7.00
2019-06-07T16:50:22.583Z,7.00
2019-06-07T16:51:27.491Z,6.50
2019-06-07T16:52:31.190Z,7.25
2019-06-07T16:53:38.255Z,7.50
2019-06-07T16:54:43.593Z,7.00
2019-06-07T16:55:46.834Z,8.00
2019-06-07T16:56:51.386Z,6.00
2019-06-07T16:57:55.116Z,7.00
2019-06-07T16:59:01.871Z,5.75
2019-06-07T17:00:05.209Z,6.75
2019-06-07T17:01:08.982Z,6.50
2019-06-07T17:02:12.359Z,5.50
2019-06-07T17:03:16.279Z,6.50
2019-06-07T17:04:19.499Z,7.00
2019-06-07T17:05:23.065Z,7.00
2019-06-07T17:06:26.656Z,6.00
2019-06-07T17:07:30.303Z,5.00
2019-06-07T17:08:33.229Z,6.00
2019-06-07T17:09:40.068Z,5.50
2019-06-07T17:10:44.210Z,5.00
2019-06-07T17:11:52.389Z,4.50
2019-06-07T17:12:57.000Z,5.00
2019-06-07T17:14:03.856Z,5.50
2019-06-07T17:15:09.166Z,5.00
2019-06-07T17:16:12.843Z,5.00
2019-06-07T17:17:15.926Z,5.00
2019-06-07T17:18:22.409Z,5.25
2019-06-07T17:19:25.550Z,5.75
2019-06-07T17:20:32.064Z,5.50
2019-06-07T17:21:35.086Z,5.25
2019-06-07T17:22:42.035Z,5.75
2019-06-07T17:23:45.687Z,6.50
2019-06-07T17:24:49.940Z,6.00
2019-06-07T17:25:54.860Z,6.00
2019-06-07T17:27:09.611Z,5.00
2019-06-07T17:28:20.554Z,6.00
2019-06-07T17:29:31.306Z,5.75
2019-06-07T17:30:34.594Z,5.25
2019-06-07T17:31:46.466Z,6.00
2019-06-07T17:32:59.198Z,4.00
2019-06-07T17:34:00.839Z,4.25
2019-06-07T17:35:19.457Z,5.00
2019-06-07T17:36:28.961Z,4.25
2019-06-07T17:37:34.659Z,3.50
2019-06-07T17:38:40.352Z,4.00
2019-06-07T17:39:43.377Z,3.50
2019-06-07T17:40:49.214Z,3.50
2019-06-07T17:42:01.691Z,2.00
2019-06-07T17:43:00.535Z,1.75
2019-06-07T17:44:09.225Z,1.50
2019-06-07T17:45:12.632Z,2.00
2019-06-07T17:46:22.560Z,1.75
2019-06-07T17:47:26.087Z,2.00
2019-06-07T17:48:30.786Z,1.25
2019-06-07T17:49:36.709Z,1.00
2019-06-07T17:50:39.385Z,1.00
2019-06-07T17:51:44.134Z,2.00
2019-06-07T17:52:47.999Z,1.25
2019-06-07T17:53:52.135Z,1.00
2019-06-07T17:54:55.713Z,1.00
2019-06-07T17:56:01.893Z,1.25
2019-06-07T17:57:04.721Z,0.50
2019-06-07T17:58:13.093Z,0.75
2019-06-07T17:59:15.798Z,0.00
2019-06-07T18:00:29.052Z,0.75
2019-06-07T18:01:41.016Z,1.00
2019-06-07T18:02:42.657Z,1.00
2019-06-07T18:03:49.178Z,0.75
2019-06-07T18:04:53.656Z,0.00
2019-06-07T18:05:59.105Z,0.00
2019-06-07T18:07:04.004Z,0.00
2019-06-07T18:08:11.991Z,0.50
2019-06-07T18:09:15.513Z,0.00
2019-06-07T18:10:19.666Z,0.00
2019-06-07T18:11:28.022Z,0.00
2019-06-07T18:12:35.259Z,0.00
2019-06-07T18:13:41.149Z,0.00
2019-06-07T18:14:44.519Z,0.25
2019-06-07T18:15:56.737Z,0.00
2019-06-07T18:17:06.327Z,0.00
2019-06-07T18:18:09.996Z,0.00
2019-06-07T18:19:12.929Z,0.25
2019-06-07T18:20:18.359Z,0.00
2019-06-07T18:21:25.461Z,0.00
2019-06-07T18:22:37.747Z,0.00
2019-06-07T18:23:41.449Z,1.00
2019-06-07T18:24:48.438Z,0.00
2019-06-07T18:25:52.533Z,1.00
2019-06-07T18:26:56.464Z,0.00
2019-06-07T18:28:02.316Z,0.00
2019-06-07T18:29:08.573Z,0.00
2019-06-07T18:30:18.490Z,0.00
2019-06-07T18:31:26.346Z,0.00
2019-06-07T18:32:30.861Z,0.25
2019-06-07T18:33:35.256Z,1.00
2019-06-07T18:34:39.852Z,0.25
2019-06-07T18:35:43.392Z,0.00
2019-06-07T18:36:46.951Z,1.00
2019-06-07T18:37:51.172Z,0.00
2019-06-07T18:38:55.084Z,1.00
2019-06-07T18:40:04.771Z,0.00
2019-06-07T18:41:07.592Z,0.00
2019-06-07T18:42:11.366Z,0.00
2019-06-07T18:43:14.234Z,0.00
2019-06-07T18:44:21.803Z,0.75
2019-06-07T18:45:26.821Z,0.00
2019-06-07T18:46:30.651Z,0.00
2019-06-07T18:47:36.194Z,0.00
2019-06-07T18:48:42.066Z,0.00
2019-06-07T18:49:44.959Z,0.00
2019-06-07T18:50:48.663Z,0.25
2019-06-07T18:52:10.655Z,0.00
2019-06-07T18:53:13.503Z,0.00
2019-06-07T18:54:16.827Z,0.00
2019-06-07T18:55:19.789Z,0.00
2019-06-07T18:56:26.540Z,0.00
2019-06-07T18:57:32.366Z,0.00
2019-06-07T18:58:37.980Z,0.00
2019-06-07T18:59:41.082Z,0.00
2019-06-07T19:00:44.336Z,0.00
2019-06-07T19:01:50.032Z,0.00
2019-06-07T19:02:54.007Z,0.00
2019-06-07T19:04:01.905Z,0.00
2019-06-07T19:05:07.833Z,0.00
2019-06-07T19:06:15.296Z,0.00
2019-06-07T19:07:19.741Z,0.00
2019-06-07T19:08:22.536Z,0.00
2019-06-07T19:09:28.585Z,1.00
2019-06-07T19:10:36.118Z,0.00
2019-06-07T19:11:39.676Z,0.00
2019-06-07T19:12:42.359Z,0.00
2019-06-07T19:13:46.088Z,0.00
2019-06-07T19:14:51.656Z,0.00
2019-06-07T19:15:55.528Z,0.00
2019-06-07T19:16:59.857Z,0.75
2019-06-07T19:18:03.139Z,0.00
2019-06-07T19:19:13.176Z,0.00
2019-06-07T19:20:15.321Z,0.00
2019-06-07T19:21:18.371Z,0.00
2019-06-07T19:25:39.190Z,0.00
2019-06-07T19:26:45.254Z,0.00
2019-06-07T19:27:48.071Z,0.00
2019-06-07T19:28:52.501Z,0.00
2019-06-07T19:29:55.261Z,0.00
2019-06-07T19:31:01.390Z,0.75
2019-06-07T19:32:11.181Z,0.00
2019-06-07T19:33:17.164Z,0.00
2019-06-07T19:34:21.470Z,0.00
2019-06-07T19:35:24.683Z,0.00
2019-06-07T19:36:47.812Z,0.00
2019-06-07T19:37:33.426Z,0.00
2019-06-07T19:38:36.703Z,0.00
2019-06-07T19:39:42.009Z,0.00
2019-06-07T19:40:49.362Z,0.00
2019-06-07T19:41:52.328Z,0.00
2019-06-07T19:42:56.474Z,0.00
2019-06-07T19:44:00.398Z,0.00
2019-06-07T19:45:28.523Z,0.00
2019-06-07T19:46:09.718Z,0.00
2019-06-07T19:47:13.518Z,0.00
2019-06-07T19:48:17.312Z,0.00
2019-06-07T19:49:20.469Z,0.00
2019-06-07T19:50:23.937Z,0.00
2019-06-07T19:51:28.913Z,0.00
2019-06-07T19:52:32.731Z,0.00
2019-06-07T19:53:35.593Z,0.25
2019-06-07T19:54:42.539Z,0.00
2019-06-07T19:55:45.598Z,0.00
2019-06-07T19:56:49.155Z,0.00
2019-06-07T19:58:00.014Z,0.00
2019-06-07T19:59:04.281Z,0.00
2019-06-07T20:00:14.026Z,0.00
2019-06-07T20:01:15.022Z,0.00
2019-06-07T20:02:18.611Z,0.00
2019-06-07T20:03:32.324Z,0.00
2019-06-07T20:04:27.011Z,0.00
2019-06-07T20:05:33.863Z,0.00
2019-06-07T20:06:37.682Z,0.00
2019-06-07T20:07:41.202Z,0.00
2019-06-07T20:09:01.321Z,0.00
2019-06-07T20:09:56.878Z,0.00
2019-06-07T20:11:00.368Z,0.00
2019-06-07T20:12:06.916Z,0.00
2019-06-07T20:13:28.781Z,0.00
2019-06-07T20:14:32.250Z,0.00
2019-06-07T20:15:35.168Z,0.00
2019-06-07T20:16:39.243Z,0.00
2019-06-07T20:17:42.803Z,0.00
2019-06-07T20:18:46.687Z,0.00
2019-06-07T20:19:51.043Z,0.00
2019-06-07T20:20:54.474Z,0.00
2019-06-07T20:22:01.024Z,0.00
2019-06-07T20:23:05.237Z,0.00
2019-06-07T20:24:24.726Z,0.00
2019-06-07T20:25:14.750Z,0.00
2019-06-07T20:26:19.136Z,0.00
2019-06-07T20:27:24.146Z,0.00
2019-06-07T20:28:26.896Z,0.00
2019-06-07T20:29:32.272Z,0.00
2019-06-07T20:30:37.847Z,0.00
2019-06-07T20:31:42.317Z,0.00
2019-06-07T20:32:57.771Z,0.00
2019-06-07T20:35:38.266Z,0.00
2019-06-07T20:36:45.976Z,0.00
2019-06-07T20:37:49.344Z,0.00
2019-06-07T20:38:53.378Z,0.00
2019-06-07T20:40:21.786Z,0.00
2019-06-07T20:41:09.730Z,0.00
2019-06-07T20:42:12.534Z,0.00
2019-06-07T20:43:19.000Z,0.00
2019-06-07T20:44:23.145Z,0.00
2019-06-07T20:45:33.811Z,0.00
2019-06-07T20:46:33.864Z,0.00
2019-06-07T20:47:46.712Z,0.00
2019-06-07T20:48:51.228Z,0.00
2019-06-07T20:49:54.538Z,0.00
2019-06-07T20:50:59.338Z,0.00
2019-06-07T20:52:06.730Z,0.00
2019-06-07T20:53:12.766Z,0.00
2019-06-07T20:54:16.407Z,0.00
2019-06-07T20:55:21.231Z,0.00
2019-06-07T20:56:29.295Z,0.00
2019-06-07T20:57:34.391Z,0.00
2019-06-07T20:58:38.297Z,0.00
2019-06-07T20:59:40.966Z,0.00
2019-06-07T21:00:44.384Z,0.00
2019-06-07T21:01:47.622Z,0.75
2019-06-07T21:02:50.946Z,0.00
2019-06-07T21:03:54.399Z,0.00
2019-06-07T21:04:59.348Z,0.00
2019-06-07T21:06:03.425Z,0.00
2019-06-07T21:07:08.157Z,0.00
2019-06-07T21:08:14.237Z,0.00
2019-06-07T21:09:17.780Z,0.00
2019-06-07T21:10:33.347Z,0.00
2019-06-07T21:11:36.676Z,0.00
2019-06-07T21:12:39.354Z,0.00
2019-06-07T21:13:42.661Z,0.00
2019-06-07T21:14:47.341Z,0.00
2019-06-07T21:15:50.697Z,0.00
2019-06-07T21:16:54.142Z,0.00
2019-06-07T21:17:57.571Z,0.00
2019-06-07T21:19:00.362Z,0.00
2019-06-07T21:20:05.994Z,0.00
2019-06-07T21:21:08.652Z,0.00
2019-06-07T21:22:16.628Z,0.00
2019-06-07T21:23:19.773Z,0.00
2019-06-07T21:24:25.966Z,0.00
2019-06-07T21:25:31.466Z,0.00
2019-06-07T21:26:34.114Z,1.00
2019-06-07T21:27:38.622Z,0.00
2019-06-07T21:28:44.122Z,0.00
2019-06-07T21:29:47.065Z,0.00
2019-06-07T21:30:51.504Z,0.00
2019-06-07T21:31:54.289Z,0.00
2019-06-07T21:32:57.682Z,0.00
2019-06-07T21:34:01.365Z,0.25
2019-06-07T21:35:05.892Z,0.00
2019-06-07T21:36:09.777Z,0.00
2019-06-07T21:37:16.098Z,0.00
2019-06-07T21:38:19.044Z,0.00
2019-06-07T21:39:22.265Z,0.00
2019-06-07T21:40:25.055Z,0.00
2019-06-07T21:41:33.014Z,0.00
2019-06-07T21:42:35.801Z,0.00
2019-06-07T21:43:39.078Z,0.00
2019-06-07T21:44:41.699Z,0.00
2019-06-07T21:45:45.118Z,0.00
2019-06-07T21:46:47.927Z,0.00
2019-06-07T21:47:51.273Z,0.00
2019-06-07T21:48:54.377Z,0.00
2019-06-07T21:49:57.617Z,0.00
2019-06-07T21:51:00.509Z,0.00
2019-06-07T21:52:04.361Z,0.00
2019-06-07T21:53:13.548Z,0.25
2019-06-07T21:54:16.902Z,0.00
2019-06-07T21:55:19.723Z,0.00
2019-06-07T21:56:23.122Z,0.00
2019-06-07T21:57:27.276Z,0.00
2019-06-07T21:58:30.748Z,0.00
2019-06-07T21:59:39.295Z,1.00
2019-06-07T22:00:44.438Z,0.00
2019-06-07T22:01:47.280Z,0.00
2019-06-07T22:02:50.743Z,0.00
2019-06-07T22:03:53.780Z,0.00
2019-06-07T22:05:03.328Z,0.00
2019-06-07T22:06:08.039Z,0.00
2019-06-07T22:07:11.922Z,0.00
2019-06-07T22:08:16.083Z,0.00
2019-06-07T22:09:28.630Z,0.25
2019-06-07T22:10:32.199Z,0.50
2019-06-07T22:11:35.408Z,0.00
2019-06-07T22:12:38.213Z,0.00
2019-06-07T22:13:45.304Z,0.00
2019-06-07T22:14:47.968Z,0.00
2019-06-07T22:15:51.359Z,0.00
2019-06-07T22:16:54.424Z,0.00
2019-06-07T22:17:58.310Z,0.00
2019-06-07T22:19:02.376Z,0.00
2019-06-07T22:20:06.381Z,0.00
2019-06-07T22:21:10.612Z,0.00
2019-06-07T22:22:14.870Z,0.00
2019-06-07T22:23:20.834Z,0.00
2019-06-07T22:24:24.163Z,0.00
2019-06-07T22:25:26.856Z,0.00
2019-06-07T22:26:30.347Z,0.00
2019-06-07T22:27:34.989Z,0.00
2019-06-07T22:28:38.419Z,0.00
